PWSweather.com
Personal Weather Stations
Station Observations
KNCCHINA3
Red Tractor Trail, China Grove, NC 28023

Red Tractor TrailChina Grove, NC 28023

Lat: 35.59751, Lon: -80.60201

Elevation: 800

Station Type: Oregon Scientific WMR 968

http://www.joesweathergarage.com

High Low Average
Temperature 71.2°F21.8°C 42.3°F5.7°C 56.7°F13.7°C
Dew Point 39.2°F4.0°C 12.1°F-11.1°C 32.5°F0.3°C
Winds 23.2 mph 37.3 kmh Calm Calm 6.0 mph E9.7 kmh E
Wind Gusts 38.4 mph61.8 kmh -- 13.0 mph20.9 kmh
Humidity 85% 12% 43%
Pressure 30.24 in1024.0 mb 29.94 in1013.9 mb -
Precipitation 0.00 in0.0 mm - -
Hour Temp Dew Point Humidity Winds Wind Gusts Pressure Precip Precip Rate Daily Precip Total
12:02 AM 61.1°F16.2°C 41.8°F5.4°C 49% 5.7 mph NNE9.2 kmh NNE 11.6 mph18.7 kmh 29.91 in1012.9 mb 0.00 in0.0 mm 0.00 in0.0 mm 0.00 in0.0 mm
12:07 AM 60.8°F16.0°C 41.5°F5.3°C 49% 5.0 mph NNE8.0 kmh NNE 8.6 mph13.8 kmh 29.91 in1012.9 mb 0.00 in0.0 mm 0.00 in0.0 mm 0.00 in0.0 mm
12:12 AM 60.4°F15.8°C 41.1°F5.1°C 49% 5.1 mph NE8.2 kmh NE 8.0 mph12.9 kmh 29.91 in1012.9 mb 0.00 in0.0 mm 0.00 in0.0 mm 0.00 in0.0 mm
12:17 AM 60.2°F15.7°C 40.9°F4.9°C 49% 6.1 mph NNE9.8 kmh NNE 7.6 mph12.2 kmh 29.91 in1012.9 mb 0.00 in0.0 mm 0.00 in0.0 mm 0.00 in0.0 mm
12:23 AM 60.1°F15.6°C 40.8°F4.9°C 49% 5.5 mph NNE8.9 kmh NNE 7.6 mph12.2 kmh 29.91 in1012.9 mb 0.00 in0.0 mm 0.00 in0.0 mm 0.00 in0.0 mm
12:28 AM 59.9°F15.5°C 40.7°F4.8°C 49% 3.4 mph ENE5.5 kmh ENE 7.6 mph12.2 kmh 29.91 in1012.9 mb 0.00 in0.0 mm 0.00 in0.0 mm 0.00 in0.0 mm
12:33 AM 59.6°F15.3°C 40.3°F4.6°C 49% 5.9 mph NNE9.5 kmh NNE 9.4 mph15.1 kmh 29.91 in1012.9 mb 0.00 in0.0 mm 0.00 in0.0 mm 0.00 in0.0 mm
12:38 AM 59.4°F15.2°C 40.1°F4.5°C 49% 7.5 mph NNE12.1 kmh NNE 9.8 mph15.8 kmh 29.91 in1012.9 mb 0.00 in0.0 mm 0.00 in0.0 mm 0.00 in0.0 mm
12:43 AM 59.3°F15.2°C 40.0°F4.4°C 49% 5.9 mph NNE9.5 kmh NNE 11.2 mph18.0 kmh 29.91 in1012.9 mb 0.00 in0.0 mm 0.00 in0.0 mm 0.00 in0.0 mm
12:48 AM 59.4°F15.2°C 39.6°F4.2°C 48% 8.7 mph NNE14.0 kmh NNE 12.6 mph20.3 kmh 29.91 in1012.9 mb 0.00 in0.0 mm 0.00 in0.0 mm 0.00 in0.0 mm
12:54 AM 59.6°F15.3°C 39.7°F4.3°C 48% 8.7 mph N14.0 kmh N 14.8 mph23.8 kmh 29.94 in1013.9 mb 0.00 in0.0 mm 0.00 in0.0 mm 0.00 in0.0 mm
12:59 AM 59.6°F15.3°C 39.7°F4.3°C 48% 12.5 mph N20.1 kmh N 17.4 mph28.0 kmh 29.94 in1013.9 mb 0.00 in0.0 mm 0.00 in0.0 mm 0.00 in0.0 mm
01:04 AM 59.6°F15.3°C 39.2°F4.0°C 47% 9.9 mph N15.9 kmh N 19.2 mph30.9 kmh 29.94 in1013.9 mb 0.00 in0.0 mm 0.00 in0.0 mm 0.00 in0.0 mm
01:09 AM 59.4°F15.2°C 39.0°F3.9°C 47% 7.0 mph N11.3 kmh N 19.2 mph30.9 kmh 29.94 in1013.9 mb 0.00 in0.0 mm 0.00 in0.0 mm 0.00 in0.0 mm
01:14 AM 59.1°F15.1°C 38.7°F3.7°C 47% 5.4 mph NNE8.7 kmh NNE 15.6 mph25.1 kmh 29.94 in1013.9 mb 0.00 in0.0 mm 0.00 in0.0 mm 0.00 in0.0 mm
01:19 AM 58.5°F14.7°C 38.7°F3.7°C 48% 3.3 mph NE5.3 kmh NE 15.6 mph25.1 kmh 29.97 in1014.9 mb 0.00 in0.0 mm 0.00 in0.0 mm 0.00 in0.0 mm
01:25 AM 58.4°F14.7°C 38.6°F3.7°C 48% 5.3 mph NE8.5 kmh NE 8.6 mph13.8 kmh 29.97 in1014.9 mb 0.00 in0.0 mm 0.00 in0.0 mm 0.00 in0.0 mm
01:30 AM 58.0°F14.4°C 38.3°F3.5°C 48% 6.5 mph NE10.5 kmh NE 13.0 mph20.9 kmh 29.97 in1014.9 mb 0.00 in0.0 mm 0.00 in0.0 mm 0.00 in0.0 mm
01:36 AM 58.0°F14.4°C 38.3°F3.5°C 48% 6.0 mph NNE9.7 kmh NNE 14.8 mph23.8 kmh 29.97 in1014.9 mb 0.00 in0.0 mm 0.00 in0.0 mm 0.00 in0.0 mm
01:41 AM 57.6°F14.2°C 37.9°F3.3°C 48% 8.4 mph N13.5 kmh N 14.8 mph23.8 kmh 29.97 in1014.9 mb 0.00 in0.0 mm 0.00 in0.0 mm 0.00 in0.0 mm
01:46 AM 57.6°F14.2°C 37.9°F3.3°C 48% 6.7 mph N10.8 kmh N 12.0 mph19.3 kmh 29.97 in1014.9 mb 0.00 in0.0 mm 0.00 in0.0 mm 0.00 in0.0 mm
01:51 AM 57.3°F14.1°C 37.6°F3.1°C 48% 5.0 mph NE8.0 kmh NE 12.0 mph19.3 kmh 29.97 in1014.9 mb 0.00 in0.0 mm 0.00 in0.0 mm 0.00 in0.0 mm
01:56 AM 56.9°F13.8°C 37.8°F3.2°C 49% 4.2 mph NNE6.8 kmh NNE 10.8 mph17.4 kmh 29.97 in1014.9 mb 0.00 in0.0 mm 0.00 in0.0 mm 0.00 in0.0 mm
02:01 AM 56.7°F13.7°C 37.6°F3.1°C 49% 4.3 mph NE6.9 kmh NE 6.8 mph10.9 kmh 29.97 in1014.9 mb 0.00 in0.0 mm 0.00 in0.0 mm 0.00 in0.0 mm
02:08 AM 56.2°F13.4°C 37.2°F2.9°C 49% 4.8 mph NNE7.7 kmh NNE 7.2 mph11.6 kmh 29.97 in1014.9 mb 0.00 in0.0 mm 0.00 in0.0 mm 0.00 in0.0 mm
02:13 AM 56.2°F13.4°C 37.2°F2.9°C 49% 5.9 mph N9.5 kmh N 7.2 mph11.6 kmh 29.97 in1014.9 mb 0.00 in0.0 mm 0.00 in0.0 mm 0.00 in0.0 mm
02:19 AM 56.0°F13.3°C 37.5°F3.1°C 50% 7.9 mph N12.7 kmh N 14.4 mph23.2 kmh 29.97 in1014.9 mb 0.00 in0.0 mm 0.00 in0.0 mm 0.00 in0.0 mm
02:25 AM 55.8°F13.2°C 37.3°F2.9°C 50% 5.6 mph NNE9.0 kmh NNE 14.4 mph23.2 kmh 29.97 in1014.9 mb 0.00 in0.0 mm 0.00 in0.0 mm 0.00 in0.0 mm
02:30 AM 55.7°F13.2°C 37.2°F2.9°C 50% 5.5 mph NNE8.9 kmh NNE 12.6 mph20.3 kmh 29.97 in1014.9 mb 0.00 in0.0 mm 0.00 in0.0 mm 0.00 in0.0 mm
02:35 AM 55.3°F12.9°C 36.9°F2.7°C 50% 4.3 mph NE6.9 kmh NE 9.8 mph15.8 kmh 29.94 in1013.9 mb 0.00 in0.0 mm 0.00 in0.0 mm 0.00 in0.0 mm
02:40 AM 54.9°F12.7°C 37.0°F2.8°C 51% 5.8 mph NE9.3 kmh NE 9.8 mph15.8 kmh 29.94 in1013.9 mb 0.00 in0.0 mm 0.00 in0.0 mm 0.00 in0.0 mm
02:45 AM 54.9°F12.7°C 37.0°F2.8°C 51% 5.2 mph N8.4 kmh N 8.0 mph12.9 kmh 29.94 in1013.9 mb 0.00 in0.0 mm 0.00 in0.0 mm 0.00 in0.0 mm
02:50 AM 54.9°F12.7°C 37.0°F2.8°C 51% 7.2 mph N11.6 kmh N 13.0 mph20.9 kmh 29.94 in1013.9 mb 0.00 in0.0 mm 0.00 in0.0 mm 0.00 in0.0 mm
02:55 AM 54.8°F12.7°C 36.9°F2.7°C 51% 6.6 mph N10.6 kmh N 13.0 mph20.9 kmh 29.94 in1013.9 mb 0.00 in0.0 mm 0.00 in0.0 mm 0.00 in0.0 mm
03:00 AM 54.6°F12.6°C 36.7°F2.6°C 51% 6.4 mph NNE10.3 kmh NNE 12.0 mph19.3 kmh 29.94 in1013.9 mb 0.00 in0.0 mm 0.00 in0.0 mm 0.00 in0.0 mm
03:05 AM 54.4°F12.4°C 37.1°F2.8°C 52% 5.7 mph N9.2 kmh N 12.0 mph19.3 kmh 29.97 in1014.9 mb 0.00 in0.0 mm 0.00 in0.0 mm 0.00 in0.0 mm
03:12 AM 53.9°F12.2°C 36.1°F2.3°C 51% 9.3 mph N15.0 kmh N 12.6 mph20.3 kmh 29.97 in1014.9 mb 0.00 in0.0 mm 0.00 in0.0 mm 0.00 in0.0 mm
03:17 AM 53.9°F12.2°C 36.1°F2.3°C 51% 4.1 mph NNE6.6 kmh NNE 13.0 mph20.9 kmh 29.97 in1014.9 mb 0.00 in0.0 mm 0.00 in0.0 mm 0.00 in0.0 mm
03:23 AM 53.5°F11.9°C 35.2°F1.8°C 50% 8.5 mph NNE13.7 kmh NNE 13.0 mph20.9 kmh 29.97 in1014.9 mb 0.00 in0.0 mm 0.00 in0.0 mm 0.00 in0.0 mm
03:28 AM 53.3°F11.8°C 35.0°F1.7°C 50% 8.4 mph NNE13.5 kmh NNE 13.0 mph20.9 kmh 29.97 in1014.9 mb 0.00 in0.0 mm 0.00 in0.0 mm 0.00 in0.0 mm
03:35 AM 53.1°F11.7°C 34.3°F1.3°C 49% 10.2 mph N16.4 kmh N 14.4 mph23.2 kmh 29.97 in1014.9 mb 0.00 in0.0 mm 0.00 in0.0 mm 0.00 in0.0 mm
03:40 AM 53.0°F11.7°C 34.2°F1.2°C 49% 6.6 mph N10.6 kmh N 14.8 mph23.8 kmh 29.97 in1014.9 mb 0.00 in0.0 mm 0.00 in0.0 mm 0.00 in0.0 mm
03:45 AM 53.0°F11.7°C 33.7°F0.9°C 48% 9.4 mph N15.1 kmh N 17.4 mph28.0 kmh 29.97 in1014.9 mb 0.00 in0.0 mm 0.00 in0.0 mm 0.00 in0.0 mm
03:50 AM 53.0°F11.7°C 33.7°F0.9°C 48% 12.8 mph NE20.6 kmh NE 24.6 mph39.6 kmh 30.00 in1015.9 mb 0.00 in0.0 mm 0.00 in0.0 mm 0.00 in0.0 mm
03:56 AM 52.8°F11.6°C 33.5°F0.8°C 48% 11.1 mph N17.9 kmh N 24.6 mph39.6 kmh 30.00 in1015.9 mb 0.00 in0.0 mm 0.00 in0.0 mm 0.00 in0.0 mm
04:01 AM 52.4°F11.3°C 33.1°F0.6°C 48% 7.5 mph N12.1 kmh N 20.2 mph32.5 kmh 30.00 in1015.9 mb 0.00 in0.0 mm 0.00 in0.0 mm 0.00 in0.0 mm
04:06 AM 52.2°F11.2°C 32.9°F0.5°C 48% 8.6 mph NNE13.8 kmh NNE 12.6 mph20.3 kmh 30.00 in1015.9 mb 0.00 in0.0 mm 0.00 in0.0 mm 0.00 in0.0 mm
04:11 AM 51.7°F10.9°C 32.5°F0.3°C 48% 12.0 mph NNE19.3 kmh NNE 22.0 mph35.4 kmh 30.00 in1015.9 mb 0.00 in0.0 mm 0.00 in0.0 mm 0.00 in0.0 mm
04:17 AM 51.7°F10.9°C 32.5°F0.3°C 48% 10.8 mph NNE17.4 kmh NNE 22.0 mph35.4 kmh 30.00 in1015.9 mb 0.00 in0.0 mm 0.00 in0.0 mm 0.00 in0.0 mm
04:22 AM 51.5°F10.8°C 32.3°F0.2°C 48% 7.0 mph N11.3 kmh N 17.0 mph27.4 kmh 30.00 in1015.9 mb 0.00 in0.0 mm 0.00 in0.0 mm 0.00 in0.0 mm
04:27 AM 51.2°F10.7°C 32.0°F0.0°C 48% 7.1 mph NE11.4 kmh NE 14.8 mph23.8 kmh 30.00 in1015.9 mb 0.00 in0.0 mm 0.00 in0.0 mm 0.00 in0.0 mm
04:32 AM 51.0°F10.6°C 31.8°F-0.1°C 48% 9.2 mph NNE14.8 kmh NNE 15.6 mph25.1 kmh 30.00 in1015.9 mb 0.00 in0.0 mm 0.00 in0.0 mm 0.00 in0.0 mm
04:38 AM 50.6°F10.3°C 31.5°F-0.3°C 48% 7.4 mph N11.9 kmh N 15.6 mph25.1 kmh 30.03 in1016.9 mb 0.00 in0.0 mm 0.00 in0.0 mm 0.00 in0.0 mm
04:43 AM 50.3°F10.2°C 31.7°F-0.2°C 49% 12.9 mph NNE20.8 kmh NNE 22.0 mph35.4 kmh 30.03 in1016.9 mb 0.00 in0.0 mm 0.00 in0.0 mm 0.00 in0.0 mm
04:48 AM 50.1°F10.1°C 31.0°F-0.6°C 48% 11.0 mph N17.7 kmh N 22.0 mph35.4 kmh 30.03 in1016.9 mb 0.00 in0.0 mm 0.00 in0.0 mm 0.00 in0.0 mm
04:53 AM 50.1°F10.1°C 31.0°F-0.6°C 48% 11.1 mph N17.9 kmh N 20.2 mph32.5 kmh 30.03 in1016.9 mb 0.00 in0.0 mm 0.00 in0.0 mm 0.00 in0.0 mm
04:58 AM 50.1°F10.1°C 31.0°F-0.6°C 48% 10.3 mph N16.6 kmh N 20.2 mph32.5 kmh 30.03 in1016.9 mb 0.00 in0.0 mm 0.00 in0.0 mm 0.00 in0.0 mm
05:03 AM 49.7°F9.8°C 31.2°F-0.4°C 49% 8.0 mph NNE12.9 kmh NNE 20.2 mph32.5 kmh 30.03 in1016.9 mb 0.00 in0.0 mm 0.00 in0.0 mm 0.00 in0.0 mm
05:08 AM 49.5°F9.7°C 31.0°F-0.6°C 49% 5.4 mph NNE8.7 kmh NNE 17.0 mph27.4 kmh 30.03 in1016.9 mb 0.00 in0.0 mm 0.00 in0.0 mm 0.00 in0.0 mm
05:13 AM 49.4°F9.7°C 30.9°F-0.6°C 49% 7.0 mph N11.3 kmh N 17.0 mph27.4 kmh 30.03 in1016.9 mb 0.00 in0.0 mm 0.00 in0.0 mm 0.00 in0.0 mm
05:18 AM 49.2°F9.6°C 30.7°F-0.7°C 49% 6.6 mph NNE10.6 kmh NNE 15.6 mph25.1 kmh 30.03 in1016.9 mb 0.00 in0.0 mm 0.00 in0.0 mm 0.00 in0.0 mm
05:23 AM 48.8°F9.3°C 30.3°F-0.9°C 49% 9.4 mph N15.1 kmh N 14.4 mph23.2 kmh 30.00 in1015.9 mb 0.00 in0.0 mm 0.00 in0.0 mm 0.00 in0.0 mm
05:29 AM 48.6°F9.2°C 30.2°F-1.0°C 49% 6.4 mph N10.3 kmh N 12.0 mph19.3 kmh 30.00 in1015.9 mb 0.00 in0.0 mm 0.00 in0.0 mm 0.00 in0.0 mm
05:34 AM 48.3°F9.1°C 29.9°F-1.2°C 49% 3.6 mph NNE5.8 kmh NNE 11.6 mph18.7 kmh 30.03 in1016.9 mb 0.00 in0.0 mm 0.00 in0.0 mm 0.00 in0.0 mm
05:39 AM 48.3°F9.1°C 29.9°F-1.2°C 49% 8.2 mph NE13.2 kmh NE 13.0 mph20.9 kmh 30.03 in1016.9 mb 0.00 in0.0 mm 0.00 in0.0 mm 0.00 in0.0 mm
05:44 AM 48.3°F9.1°C 29.9°F-1.2°C 49% 8.4 mph NE13.5 kmh NE 13.0 mph20.9 kmh 30.03 in1016.9 mb 0.00 in0.0 mm 0.00 in0.0 mm 0.00 in0.0 mm
05:49 AM 48.1°F8.9°C 29.7°F-1.3°C 49% 5.1 mph N8.2 kmh N 12.0 mph19.3 kmh 30.03 in1016.9 mb 0.00 in0.0 mm 0.00 in0.0 mm 0.00 in0.0 mm
05:54 AM 47.7°F8.7°C 29.8°F-1.2°C 50% 5.5 mph NE8.9 kmh NE 9.4 mph15.1 kmh 30.03 in1016.9 mb 0.00 in0.0 mm 0.00 in0.0 mm 0.00 in0.0 mm
05:59 AM 47.9°F8.8°C 30.0°F-1.1°C 50% 8.9 mph NNE14.3 kmh NNE 13.0 mph20.9 kmh 30.03 in1016.9 mb 0.00 in0.0 mm 0.00 in0.0 mm 0.00 in0.0 mm
06:04 AM 47.7°F8.7°C 29.8°F-1.2°C 50% 8.5 mph N13.7 kmh N 13.0 mph20.9 kmh 30.03 in1016.9 mb 0.00 in0.0 mm 0.00 in0.0 mm 0.00 in0.0 mm
06:09 AM 47.6°F8.7°C 29.8°F-1.2°C 50% 5.9 mph NE9.5 kmh NE 13.0 mph20.9 kmh 30.03 in1016.9 mb 0.00 in0.0 mm 0.00 in0.0 mm 0.00 in0.0 mm
06:14 AM 47.4°F8.6°C 29.6°F-1.3°C 50% 4.1 mph NE6.6 kmh NE 9.4 mph15.1 kmh 30.03 in1016.9 mb 0.00 in0.0 mm 0.00 in0.0 mm 0.00 in0.0 mm
06:20 AM 47.0°F8.3°C 29.2°F-1.6°C 50% 2.2 mph ENE3.5 kmh ENE 8.6 mph13.8 kmh 30.06 in1017.9 mb 0.00 in0.0 mm 0.00 in0.0 mm 0.00 in0.0 mm
06:25 AM 46.8°F8.2°C 29.5°F-1.4°C 51% 3.8 mph N6.1 kmh N 8.6 mph13.8 kmh 30.06 in1017.9 mb 0.00 in0.0 mm 0.00 in0.0 mm 0.00 in0.0 mm
06:30 AM 46.8°F8.2°C 29.5°F-1.4°C 51% 5.5 mph NNE8.9 kmh NNE 16.2 mph26.1 kmh 30.06 in1017.9 mb 0.00 in0.0 mm 0.00 in0.0 mm 0.00 in0.0 mm
06:35 AM 46.7°F8.2°C 29.9°F-1.2°C 52% 3.9 mph NNE6.3 kmh NNE 16.2 mph26.1 kmh 30.09 in1019.0 mb 0.00 in0.0 mm 0.00 in0.0 mm 0.00 in0.0 mm
06:41 AM 46.5°F8.1°C 29.7°F-1.3°C 52% 2.6 mph NE4.2 kmh NE 7.6 mph12.2 kmh 30.09 in1019.0 mb 0.00 in0.0 mm 0.00 in0.0 mm 0.00 in0.0 mm
06:46 AM 46.5°F8.1°C 29.7°F-1.3°C 52% 4.1 mph NE6.6 kmh NE 6.2 mph10.0 kmh 30.09 in1019.0 mb 0.00 in0.0 mm 0.00 in0.0 mm 0.00 in0.0 mm
06:51 AM 46.3°F7.9°C 29.5°F-1.4°C 52% 4.0 mph NNE6.4 kmh NNE 7.2 mph11.6 kmh 30.09 in1019.0 mb 0.00 in0.0 mm 0.00 in0.0 mm 0.00 in0.0 mm
06:56 AM 46.3°F7.9°C 30.0°F-1.1°C 53% 3.8 mph NNE6.1 kmh NNE 7.2 mph11.6 kmh 30.09 in1019.0 mb 0.00 in0.0 mm 0.00 in0.0 mm 0.00 in0.0 mm
07:01 AM 46.3°F7.9°C 30.0°F-1.1°C 53% 5.6 mph NE9.0 kmh NE 7.2 mph11.6 kmh 30.09 in1019.0 mb 0.00 in0.0 mm 0.00 in0.0 mm 0.00 in0.0 mm
07:06 AM 46.5°F8.1°C 30.2°F-1.0°C 53% 4.5 mph NNE7.2 kmh NNE 7.2 mph11.6 kmh 30.06 in1017.9 mb 0.00 in0.0 mm 0.00 in0.0 mm 0.00 in0.0 mm
07:11 AM 46.7°F8.2°C 30.9°F-0.6°C 54% 7.3 mph NNE11.7 kmh NNE 13.0 mph20.9 kmh 30.06 in1017.9 mb 0.00 in0.0 mm 0.00 in0.0 mm 0.00 in0.0 mm
07:16 AM 47.2°F8.4°C 31.3°F-0.4°C 54% 4.7 mph NNE7.6 kmh NNE 13.0 mph20.9 kmh 30.06 in1017.9 mb 0.00 in0.0 mm 0.00 in0.0 mm 0.00 in0.0 mm
07:22 AM 47.6°F8.7°C 31.2°F-0.4°C 53% 4.7 mph NNE7.6 kmh NNE 12.6 mph20.3 kmh 30.09 in1019.0 mb 0.00 in0.0 mm 0.00 in0.0 mm 0.00 in0.0 mm
07:27 AM 47.7°F8.7°C 31.8°F-0.1°C 54% 3.2 mph WNW5.1 kmh WNW 11.2 mph18.0 kmh 30.09 in1019.0 mb 0.00 in0.0 mm 0.00 in0.0 mm 0.00 in0.0 mm
07:32 AM 47.9°F8.8°C 32.0°F0.0°C 54% 1.8 mph NE2.9 kmh NE 6.8 mph10.9 kmh 30.09 in1019.0 mb 0.00 in0.0 mm 0.00 in0.0 mm 0.00 in0.0 mm
07:37 AM 48.1°F8.9°C 31.7°F-0.2°C 53% 4.1 mph ENE6.6 kmh ENE 6.8 mph10.9 kmh 30.12 in1020.0 mb 0.00 in0.0 mm 0.00 in0.0 mm 0.00 in0.0 mm
07:42 AM 48.1°F8.9°C 31.2°F-0.4°C 52% 7.1 mph NNE11.4 kmh NNE 14.4 mph23.2 kmh 30.12 in1020.0 mb 0.00 in0.0 mm 0.00 in0.0 mm 0.00 in0.0 mm
07:48 AM 48.5°F9.2°C 32.5°F0.3°C 54% 4.6 mph N7.4 kmh N 14.4 mph23.2 kmh 30.12 in1020.0 mb 0.00 in0.0 mm 0.00 in0.0 mm 0.00 in0.0 mm
07:52 AM 48.6°F9.2°C 32.2°F0.1°C 53% 7.0 mph NNE11.3 kmh NNE 8.6 mph13.8 kmh 30.12 in1020.0 mb 0.00 in0.0 mm 0.00 in0.0 mm 0.00 in0.0 mm
07:58 AM 48.8°F9.3°C 31.9°F-0.1°C 52% 10.1 mph N16.3 kmh N 12.6 mph20.3 kmh 30.12 in1020.0 mb 0.00 in0.0 mm 0.00 in0.0 mm 0.00 in0.0 mm
08:02 AM 49.2°F9.6°C 32.2°F0.1°C 52% 9.9 mph NNE15.9 kmh NNE 13.8 mph22.2 kmh 30.12 in1020.0 mb 0.00 in0.0 mm 0.00 in0.0 mm 0.00 in0.0 mm
08:07 AM 49.4°F9.7°C 31.9°F-0.1°C 51% 8.8 mph NE14.2 kmh NE 14.8 mph23.8 kmh 30.15 in1021.0 mb 0.00 in0.0 mm 0.00 in0.0 mm 0.00 in0.0 mm
08:14 AM 49.7°F9.8°C 32.2°F0.1°C 51% 4.6 mph NNE7.4 kmh NNE 14.8 mph23.8 kmh 30.15 in1021.0 mb 0.00 in0.0 mm 0.00 in0.0 mm 0.00 in0.0 mm
08:19 AM 50.1°F10.1°C 32.1°F0.1°C 50% 7.7 mph NNE12.4 kmh NNE 14.8 mph23.8 kmh 30.15 in1021.0 mb 0.00 in0.0 mm 0.00 in0.0 mm 0.00 in0.0 mm
08:24 AM 50.1°F10.1°C 32.1°F0.1°C 50% 14.7 mph N23.7 kmh N 17.4 mph28.0 kmh 30.15 in1021.0 mb 0.00 in0.0 mm 0.00 in0.0 mm 0.00 in0.0 mm
08:29 AM 50.1°F10.1°C 31.0°F-0.6°C 48% 20.0 mph N32.2 kmh N 26.4 mph42.5 kmh 30.15 in1021.0 mb 0.00 in0.0 mm 0.00 in0.0 mm 0.00 in0.0 mm
08:34 AM 50.1°F10.1°C 31.0°F-0.6°C 48% 15.4 mph N24.8 kmh N 26.4 mph42.5 kmh 30.15 in1021.0 mb 0.00 in0.0 mm 0.00 in0.0 mm 0.00 in0.0 mm
08:39 AM 50.4°F10.2°C 31.8°F-0.1°C 49% 11.0 mph N17.7 kmh N 26.4 mph42.5 kmh 30.15 in1021.0 mb 0.00 in0.0 mm 0.00 in0.0 mm 0.00 in0.0 mm
08:45 AM 50.4°F10.2°C 31.3°F-0.4°C 48% 12.0 mph N19.3 kmh N 22.0 mph35.4 kmh 30.15 in1021.0 mb 0.00 in0.0 mm 0.00 in0.0 mm 0.00 in0.0 mm
08:50 AM 50.8°F10.4°C 31.1°F-0.5°C 47% 15.4 mph N24.8 kmh N 25.0 mph40.2 kmh 30.15 in1021.0 mb 0.00 in0.0 mm 0.00 in0.0 mm 0.00 in0.0 mm
08:55 AM 51.0°F10.6°C 31.3°F-0.4°C 47% 12.5 mph NNE20.1 kmh NNE 38.4 mph61.8 kmh 30.15 in1021.0 mb 0.00 in0.0 mm 0.00 in0.0 mm 0.00 in0.0 mm
09:00 AM 51.3°F10.7°C 31.6°F-0.2°C 47% 15.1 mph N24.3 kmh N 38.4 mph61.8 kmh 30.15 in1021.0 mb 0.00 in0.0 mm 0.00 in0.0 mm 0.00 in0.0 mm
09:06 AM 51.2°F10.7°C 31.5°F-0.3°C 47% 23.2 mph NNE37.3 kmh NNE 37.2 mph59.9 kmh 30.18 in1022.0 mb 0.00 in0.0 mm 0.00 in0.0 mm 0.00 in0.0 mm
09:11 AM 51.3°F10.7°C 31.0°F-0.6°C 46% 21.6 mph N34.8 kmh N 37.2 mph59.9 kmh 30.18 in1022.0 mb 0.00 in0.0 mm 0.00 in0.0 mm 0.00 in0.0 mm
09:16 AM 52.1°F11.2°C 31.8°F-0.1°C 46% 9.6 mph N15.4 kmh N 37.2 mph59.9 kmh 30.18 in1022.0 mb 0.00 in0.0 mm 0.00 in0.0 mm 0.00 in0.0 mm
09:21 AM 52.6°F11.4°C 32.2°F0.1°C 46% 6.0 mph N9.7 kmh N 30.8 mph49.6 kmh 30.18 in1022.0 mb 0.00 in0.0 mm 0.00 in0.0 mm 0.00 in0.0 mm
09:26 AM 53.1°F11.7°C 32.7°F0.4°C 46% 11.7 mph N18.8 kmh N 20.2 mph32.5 kmh 30.18 in1022.0 mb 0.00 in0.0 mm 0.00 in0.0 mm 0.00 in0.0 mm
09:31 AM 53.1°F11.7°C 32.1°F0.1°C 45% 13.2 mph N21.2 kmh N 22.4 mph36.0 kmh 30.18 in1022.0 mb 0.00 in0.0 mm 0.00 in0.0 mm 0.00 in0.0 mm
09:36 AM 54.0°F12.2°C 32.9°F0.5°C 45% 8.2 mph N13.2 kmh N 22.4 mph36.0 kmh 30.21 in1023.0 mb 0.00 in0.0 mm 0.00 in0.0 mm 0.00 in0.0 mm
09:41 AM 54.9°F12.7°C 32.6°F0.3°C 43% 10.7 mph NNE17.2 kmh NNE 17.0 mph27.4 kmh 30.21 in1023.0 mb 0.00 in0.0 mm 0.00 in0.0 mm 0.00 in0.0 mm
09:46 AM 55.7°F13.2°C 32.1°F0.1°C 41% 10.7 mph N17.2 kmh N 17.0 mph27.4 kmh 30.21 in1023.0 mb 0.00 in0.0 mm 0.00 in0.0 mm 0.00 in0.0 mm
09:51 AM 56.6°F13.7°C 32.9°F0.5°C 41% 10.7 mph NNE17.2 kmh NNE 17.4 mph28.0 kmh 30.21 in1023.0 mb 0.00 in0.0 mm 0.00 in0.0 mm 0.00 in0.0 mm
09:56 AM 57.3°F14.1°C 33.5°F0.8°C 41% 7.2 mph N11.6 kmh N 17.4 mph28.0 kmh 30.21 in1023.0 mb 0.00 in0.0 mm 0.00 in0.0 mm 0.00 in0.0 mm
10:01 AM 58.2°F14.6°C 34.3°F1.3°C 41% 7.2 mph N11.6 kmh N 17.4 mph28.0 kmh 30.21 in1023.0 mb 0.00 in0.0 mm 0.00 in0.0 mm 0.00 in0.0 mm
10:06 AM 58.0°F14.4°C 32.9°F0.5°C 39% 12.0 mph N19.3 kmh N 22.0 mph35.4 kmh 30.24 in1024.0 mb 0.00 in0.0 mm 0.00 in0.0 mm 0.00 in0.0 mm
10:11 AM 58.7°F14.8°C 33.5°F0.8°C 39% 6.7 mph N10.8 kmh N 22.0 mph35.4 kmh 30.24 in1024.0 mb 0.00 in0.0 mm 0.00 in0.0 mm 0.00 in0.0 mm
10:19 AM 58.9°F14.9°C 32.4°F0.2°C 37% 10.3 mph N16.6 kmh N 21.0 mph33.8 kmh 30.24 in1024.0 mb 0.00 in0.0 mm 0.00 in0.0 mm 0.00 in0.0 mm
10:24 AM 58.7°F14.8°C 32.9°F0.5°C 38% 13.1 mph N21.1 kmh N 24.6 mph39.6 kmh 30.21 in1023.0 mb 0.00 in0.0 mm 0.00 in0.0 mm 0.00 in0.0 mm
10:29 AM 59.6°F15.3°C 33.0°F0.6°C 37% 6.7 mph NW10.8 kmh NW 24.6 mph39.6 kmh 30.21 in1023.0 mb 0.00 in0.0 mm 0.00 in0.0 mm 0.00 in0.0 mm
10:34 AM 59.9°F15.5°C 33.3°F0.7°C 37% 7.3 mph N11.7 kmh N 14.4 mph23.2 kmh 30.21 in1023.0 mb 0.00 in0.0 mm 0.00 in0.0 mm 0.00 in0.0 mm
10:39 AM 60.1°F15.6°C 33.5°F0.8°C 37% 8.5 mph N13.7 kmh N 18.4 mph29.6 kmh 30.21 in1023.0 mb 0.00 in0.0 mm 0.00 in0.0 mm 0.00 in0.0 mm
10:44 AM 58.9°F14.9°C 31.7°F-0.2°C 36% 5.7 mph NW9.2 kmh NW 18.4 mph29.6 kmh 30.21 in1023.0 mb 0.00 in0.0 mm 0.00 in0.0 mm 0.00 in0.0 mm
10:49 AM 61.1°F16.2°C 33.7°F0.9°C 36% 7.7 mph NNE12.4 kmh NNE 13.0 mph20.9 kmh 30.21 in1023.0 mb 0.00 in0.0 mm 0.00 in0.0 mm 0.00 in0.0 mm
10:54 AM 60.1°F15.6°C 33.5°F0.8°C 37% 8.1 mph NNW13.0 kmh NNW 21.0 mph33.8 kmh 30.18 in1022.0 mb 0.00 in0.0 mm 0.00 in0.0 mm 0.00 in0.0 mm
10:59 AM 60.8°F16.0°C 32.7°F0.4°C 35% 11.0 mph NNE17.7 kmh NNE 21.0 mph33.8 kmh 30.18 in1022.0 mb 0.00 in0.0 mm 0.00 in0.0 mm 0.00 in0.0 mm
11:04 AM 60.8°F16.0°C 32.7°F0.4°C 35% 6.9 mph N11.1 kmh N 17.4 mph28.0 kmh 30.18 in1022.0 mb 0.00 in0.0 mm 0.00 in0.0 mm 0.00 in0.0 mm
11:09 AM 60.2°F15.7°C 32.2°F0.1°C 35% 19.1 mph NNE30.7 kmh NNE 29.0 mph46.7 kmh 30.21 in1023.0 mb 0.00 in0.0 mm 0.00 in0.0 mm 0.00 in0.0 mm
11:14 AM 59.4°F15.2°C 30.7°F-0.7°C 34% 20.1 mph N32.3 kmh N 30.4 mph48.9 kmh 30.21 in1023.0 mb 0.00 in0.0 mm 0.00 in0.0 mm 0.00 in0.0 mm
11:20 AM 61.7°F16.5°C 34.2°F1.2°C 36% 5.6 mph W9.0 kmh W 30.4 mph48.9 kmh 30.21 in1023.0 mb 0.00 in0.0 mm 0.00 in0.0 mm 0.00 in0.0 mm
11:25 AM 62.0°F16.7°C 34.5°F1.4°C 36% 6.3 mph WNW10.1 kmh WNW 14.4 mph23.2 kmh 30.21 in1023.0 mb 0.00 in0.0 mm 0.00 in0.0 mm 0.00 in0.0 mm
11:30 AM 61.9°F16.6°C 33.7°F0.9°C 35% 5.0 mph NW8.0 kmh NW 11.6 mph18.7 kmh 30.21 in1023.0 mb 0.00 in0.0 mm 0.00 in0.0 mm 0.00 in0.0 mm
11:35 AM 63.7°F17.6°C 35.3°F1.8°C 35% 6.0 mph NNE9.7 kmh NNE 12.6 mph20.3 kmh 30.21 in1023.0 mb 0.00 in0.0 mm 0.00 in0.0 mm 0.00 in0.0 mm
11:41 AM 62.6°F17.0°C 32.8°F0.4°C 33% 13.7 mph NNE22.0 kmh NNE 22.4 mph36.0 kmh 30.21 in1023.0 mb 0.00 in0.0 mm 0.00 in0.0 mm 0.00 in0.0 mm
11:46 AM 62.2°F16.8°C 33.2°F0.7°C 34% 14.1 mph N22.7 kmh N 22.8 mph36.7 kmh 30.21 in1023.0 mb 0.00 in0.0 mm 0.00 in0.0 mm 0.00 in0.0 mm
11:51 AM 63.3°F17.4°C 34.2°F1.2°C 34% 8.7 mph N14.0 kmh N 22.8 mph36.7 kmh 30.21 in1023.0 mb 0.00 in0.0 mm 0.00 in0.0 mm 0.00 in0.0 mm
11:56 AM 62.8°F17.1°C 34.5°F1.4°C 35% 7.1 mph NW11.4 kmh NW 20.2 mph32.5 kmh 30.21 in1023.0 mb 0.00 in0.0 mm 0.00 in0.0 mm 0.00 in0.0 mm
12:01 PM 61.7°F16.5°C 32.8°F0.4°C 34% 17.1 mph NE27.5 kmh NE 27.2 mph43.8 kmh 30.21 in1023.0 mb 0.00 in0.0 mm 0.00 in0.0 mm 0.00 in0.0 mm
12:07 PM 63.3°F17.4°C 34.2°F1.2°C 34% 10.4 mph N16.7 kmh N 27.2 mph43.8 kmh 30.21 in1023.0 mb 0.00 in0.0 mm 0.00 in0.0 mm 0.00 in0.0 mm
12:12 PM 62.6°F17.0°C 32.8°F0.4°C 33% 19.7 mph NNE31.7 kmh NNE 26.4 mph42.5 kmh 30.21 in1023.0 mb 0.00 in0.0 mm 0.00 in0.0 mm 0.00 in0.0 mm
12:17 PM 63.5°F17.5°C 34.4°F1.3°C 34% 5.7 mph NW9.2 kmh NW 24.2 mph38.9 kmh 30.21 in1023.0 mb 0.00 in0.0 mm 0.00 in0.0 mm 0.00 in0.0 mm
12:22 PM 62.9°F17.2°C 33.1°F0.6°C 33% 7.0 mph NW11.3 kmh NW 14.4 mph23.2 kmh 30.21 in1023.0 mb 0.00 in0.0 mm 0.00 in0.0 mm 0.00 in0.0 mm
12:27 PM 64.0°F17.8°C 34.8°F1.6°C 34% 8.6 mph N13.8 kmh N 13.0 mph20.9 kmh 30.21 in1023.0 mb 0.00 in0.0 mm 0.00 in0.0 mm 0.00 in0.0 mm
12:32 PM 65.6°F18.7°C 35.5°F1.9°C 33% 6.3 mph N10.1 kmh N 16.2 mph26.1 kmh 30.21 in1023.0 mb 0.00 in0.0 mm 0.00 in0.0 mm 0.00 in0.0 mm
12:37 PM 65.8°F18.8°C 35.7°F2.1°C 33% 6.9 mph NW11.1 kmh NW 16.2 mph26.1 kmh 30.21 in1023.0 mb 0.00 in0.0 mm 0.00 in0.0 mm 0.00 in0.0 mm
12:43 PM 63.7°F17.6°C 32.3°F0.2°C 31% 11.0 mph NNE17.7 kmh NNE 20.6 mph33.2 kmh 30.21 in1023.0 mb 0.00 in0.0 mm 0.00 in0.0 mm 0.00 in0.0 mm
12:48 PM 64.9°F18.3°C 34.9°F1.6°C 33% 6.8 mph N10.9 kmh N 26.4 mph42.5 kmh 30.21 in1023.0 mb 0.00 in0.0 mm 0.00 in0.0 mm 0.00 in0.0 mm
12:53 PM 65.3°F18.5°C 35.2°F1.8°C 33% 6.0 mph NW9.7 kmh NW 26.4 mph42.5 kmh 30.18 in1022.0 mb 0.00 in0.0 mm 0.00 in0.0 mm 0.00 in0.0 mm
12:58 PM 67.1°F19.5°C 36.8°F2.7°C 33% 7.3 mph N11.7 kmh N 19.6 mph31.5 kmh 30.18 in1022.0 mb 0.00 in0.0 mm 0.00 in0.0 mm 0.00 in0.0 mm
01:04 PM 65.8°F18.8°C 32.4°F0.2°C 29% 11.4 mph N18.3 kmh N 19.6 mph31.5 kmh 30.18 in1022.0 mb 0.00 in0.0 mm 0.00 in0.0 mm 0.00 in0.0 mm
01:09 PM 66.5°F19.2°C 35.5°F1.9°C 32% 6.6 mph NW10.6 kmh NW 19.2 mph30.9 kmh 30.18 in1022.0 mb 0.00 in0.0 mm 0.00 in0.0 mm 0.00 in0.0 mm
01:14 PM 65.3°F18.5°C 31.1°F-0.5°C 28% 10.7 mph NNE17.2 kmh NNE 26.4 mph42.5 kmh 30.18 in1022.0 mb 0.00 in0.0 mm 0.00 in0.0 mm 0.00 in0.0 mm
01:19 PM 67.1°F19.5°C 33.6°F0.9°C 29% 7.8 mph NNE12.6 kmh NNE 26.4 mph42.5 kmh 30.18 in1022.0 mb 0.00 in0.0 mm 0.00 in0.0 mm 0.00 in0.0 mm
01:24 PM 66.5°F19.2°C 31.3°F-0.4°C 27% 9.8 mph NE15.8 kmh NE 21.0 mph33.8 kmh 30.18 in1022.0 mb 0.00 in0.0 mm 0.00 in0.0 mm 0.00 in0.0 mm
01:29 PM 67.3°F19.6°C 33.7°F0.9°C 29% 7.7 mph N12.4 kmh N 21.0 mph33.8 kmh 30.18 in1022.0 mb 0.00 in0.0 mm 0.00 in0.0 mm 0.00 in0.0 mm
01:34 PM 67.8°F19.9°C 33.3°F0.7°C 28% 7.3 mph N11.7 kmh N 21.0 mph33.8 kmh 30.18 in1022.0 mb 0.00 in0.0 mm 0.00 in0.0 mm 0.00 in0.0 mm
01:39 PM 67.6°F19.8°C 34.8°F1.6°C 30% 6.6 mph N10.6 kmh N 21.0 mph33.8 kmh 30.18 in1022.0 mb 0.00 in0.0 mm 0.00 in0.0 mm 0.00 in0.0 mm
01:44 PM 67.8°F19.9°C 33.3°F0.7°C 28% 8.0 mph N12.9 kmh N 17.4 mph28.0 kmh 30.18 in1022.0 mb 0.00 in0.0 mm 0.00 in0.0 mm 0.00 in0.0 mm
01:49 PM 67.6°F19.8°C 32.2°F0.1°C 27% 7.5 mph N12.1 kmh N 32.6 mph52.5 kmh 30.18 in1022.0 mb 0.00 in0.0 mm 0.00 in0.0 mm 0.00 in0.0 mm
01:55 PM 68.3°F20.2°C 31.9°F-0.1°C 26% 10.7 mph NE17.2 kmh NE 32.6 mph52.5 kmh 30.18 in1022.0 mb 0.00 in0.0 mm 0.00 in0.0 mm 0.00 in0.0 mm
02:00 PM 68.3°F20.2°C 35.4°F1.9°C 30% 9.8 mph 15.8 kmh 20.6 mph33.2 kmh 30.18 in1022.0 mb 0.00 in0.0 mm 0.00 in0.0 mm 0.00 in0.0 mm
02:05 PM 68.7°F20.4°C 34.1°F1.2°C 28% 4.1 mph N6.6 kmh N 20.6 mph33.2 kmh 30.15 in1021.0 mb 0.00 in0.0 mm 0.00 in0.0 mm 0.00 in0.0 mm
02:10 PM 68.3°F20.2°C 31.9°F-0.1°C 26% 5.9 mph WSW9.5 kmh WSW 9.4 mph15.1 kmh 30.15 in1021.0 mb 0.00 in0.0 mm 0.00 in0.0 mm 0.00 in0.0 mm
02:15 PM 68.5°F20.3°C 33.9°F1.1°C 28% 5.1 mph WNW8.2 kmh WNW 10.8 mph17.4 kmh 30.15 in1021.0 mb 0.00 in0.0 mm 0.00 in0.0 mm 0.00 in0.0 mm
02:20 PM 69.1°F20.6°C 31.6°F-0.2°C 25% 10.9 mph NE17.5 kmh NE 13.8 mph22.2 kmh 30.15 in1021.0 mb 0.00 in0.0 mm 0.00 in0.0 mm 0.00 in0.0 mm
02:26 PM 69.8°F21.0°C 33.2°F0.7°C 26% 6.9 mph N11.1 kmh N 17.4 mph28.0 kmh 30.15 in1021.0 mb 0.00 in0.0 mm 0.00 in0.0 mm 0.00 in0.0 mm
02:31 PM 68.7°F20.4°C 32.2°F0.1°C 26% 6.2 mph NW10.0 kmh NW 17.4 mph28.0 kmh 30.15 in1021.0 mb 0.00 in0.0 mm 0.00 in0.0 mm 0.00 in0.0 mm
02:37 PM 68.2°F20.1°C 29.9°F-1.2°C 24% 15.1 mph N24.3 kmh N 22.4 mph36.0 kmh 30.15 in1021.0 mb 0.00 in0.0 mm 0.00 in0.0 mm 0.00 in0.0 mm
02:41 PM 68.9°F20.5°C 29.4°F-1.4°C 23% 12.6 mph NE20.3 kmh NE 22.4 mph36.0 kmh 30.15 in1021.0 mb 0.00 in0.0 mm 0.00 in0.0 mm 0.00 in0.0 mm
02:47 PM 71.0°F21.7°C 33.2°F0.7°C 25% 3.9 mph WSW6.3 kmh WSW 17.0 mph27.4 kmh 30.15 in1021.0 mb 0.00 in0.0 mm 0.00 in0.0 mm 0.00 in0.0 mm
02:52 PM 70.3°F21.3°C 32.6°F0.3°C 25% 6.2 mph NW10.0 kmh NW 13.0 mph20.9 kmh 30.15 in1021.0 mb 0.00 in0.0 mm 0.00 in0.0 mm 0.00 in0.0 mm
02:57 PM 69.4°F20.8°C 30.9°F-0.6°C 24% 7.9 mph N12.7 kmh N 16.2 mph26.1 kmh 30.15 in1021.0 mb 0.00 in0.0 mm 0.00 in0.0 mm 0.00 in0.0 mm
03:02 PM 69.6°F20.9°C 30.0°F-1.1°C 23% 12.1 mph NNE19.5 kmh NNE 16.2 mph26.1 kmh 30.15 in1021.0 mb 0.00 in0.0 mm 0.00 in0.0 mm 0.00 in0.0 mm
03:07 PM 70.9°F21.6°C 31.1°F-0.5°C 23% 4.9 mph NE7.9 kmh NE 15.6 mph25.1 kmh 30.12 in1020.0 mb 0.00 in0.0 mm 0.00 in0.0 mm 0.00 in0.0 mm
03:12 PM 70.1°F21.2°C 30.4°F-0.9°C 23% 8.7 mph NNW14.0 kmh NNW 16.2 mph26.1 kmh 30.12 in1020.0 mb 0.00 in0.0 mm 0.00 in0.0 mm 0.00 in0.0 mm
03:19 PM 69.6°F20.9°C 30.0°F-1.1°C 23% 9.0 mph N14.5 kmh N 24.6 mph39.6 kmh 30.12 in1020.0 mb 0.00 in0.0 mm 0.00 in0.0 mm 0.00 in0.0 mm
03:24 PM 70.0°F21.1°C 30.4°F-0.9°C 23% 7.6 mph NNE12.2 kmh NNE 24.6 mph39.6 kmh 30.12 in1020.0 mb 0.00 in0.0 mm 0.00 in0.0 mm 0.00 in0.0 mm
03:29 PM 69.2°F20.7°C 29.7°F-1.3°C 23% 8.2 mph NNE13.2 kmh NNE 20.2 mph32.5 kmh 30.12 in1020.0 mb 0.00 in0.0 mm 0.00 in0.0 mm 0.00 in0.0 mm
03:34 PM 71.2°F21.8°C 32.4°F0.2°C 24% 6.0 mph N9.7 kmh N 20.2 mph32.5 kmh 30.15 in1021.0 mb 0.00 in0.0 mm 0.00 in0.0 mm 0.00 in0.0 mm
03:39 PM 70.1°F21.2°C 29.4°F-1.4°C 22% 6.8 mph N10.9 kmh N 16.2 mph26.1 kmh 30.15 in1021.0 mb 0.00 in0.0 mm 0.00 in0.0 mm 0.00 in0.0 mm
03:44 PM 70.7°F21.5°C 30.9°F-0.6°C 23% 9.6 mph N15.4 kmh N 16.2 mph26.1 kmh 30.15 in1021.0 mb 0.00 in0.0 mm 0.00 in0.0 mm 0.00 in0.0 mm
03:49 PM 70.1°F21.2°C 29.4°F-1.4°C 22% 11.7 mph NE18.8 kmh NE 17.4 mph28.0 kmh 30.15 in1021.0 mb 0.00 in0.0 mm 0.00 in0.0 mm 0.00 in0.0 mm
03:54 PM 70.3°F21.3°C 29.5°F-1.4°C 22% 11.2 mph NNE18.0 kmh NNE 18.4 mph29.6 kmh 30.15 in1021.0 mb 0.00 in0.0 mm 0.00 in0.0 mm 0.00 in0.0 mm
03:59 PM 68.9°F20.5°C 29.4°F-1.4°C 23% 6.9 mph NW11.1 kmh NW 18.4 mph29.6 kmh 30.15 in1021.0 mb 0.00 in0.0 mm 0.00 in0.0 mm 0.00 in0.0 mm
04:04 PM 69.4°F20.8°C 29.8°F-1.2°C 23% 6.4 mph WSW10.3 kmh WSW 12.0 mph19.3 kmh 30.15 in1021.0 mb 0.00 in0.0 mm 0.00 in0.0 mm 0.00 in0.0 mm
04:09 PM 68.5°F20.3°C 25.7°F-3.5°C 20% 15.4 mph N24.8 kmh N 17.4 mph28.0 kmh 30.15 in1021.0 mb 0.00 in0.0 mm 0.00 in0.0 mm 0.00 in0.0 mm
04:14 PM 69.1°F20.6°C 28.5°F-1.9°C 22% 7.7 mph N12.4 kmh N 21.4 mph34.4 kmh 30.15 in1021.0 mb 0.00 in0.0 mm 0.00 in0.0 mm 0.00 in0.0 mm
04:19 PM 69.8°F21.0°C 30.2°F-1.0°C 23% 8.3 mph NNE13.4 kmh NNE 21.4 mph34.4 kmh 30.15 in1021.0 mb 0.00 in0.0 mm 0.00 in0.0 mm 0.00 in0.0 mm
04:24 PM 69.6°F20.9°C 28.9°F-1.7°C 22% 8.7 mph N14.0 kmh N 16.2 mph26.1 kmh 30.15 in1021.0 mb 0.00 in0.0 mm 0.00 in0.0 mm 0.00 in0.0 mm
04:29 PM 69.1°F20.6°C 30.6°F-0.8°C 24% 8.0 mph N12.9 kmh N 16.2 mph26.1 kmh 30.15 in1021.0 mb 0.00 in0.0 mm 0.00 in0.0 mm 0.00 in0.0 mm
04:34 PM 70.0°F21.1°C 30.4°F-0.9°C 23% 4.0 mph ENE6.4 kmh ENE 16.2 mph26.1 kmh 30.15 in1021.0 mb 0.00 in0.0 mm 0.00 in0.0 mm 0.00 in0.0 mm
04:43 PM 69.8°F21.0°C 29.1°F-1.6°C 22% 8.3 mph NE13.4 kmh NE 15.2 mph24.5 kmh 30.15 in1021.0 mb 0.00 in0.0 mm 0.00 in0.0 mm 0.00 in0.0 mm
04:48 PM 69.1°F20.6°C 29.6°F-1.3°C 23% 8.4 mph NE13.5 kmh NE 17.4 mph28.0 kmh 30.15 in1021.0 mb 0.00 in0.0 mm 0.00 in0.0 mm 0.00 in0.0 mm
04:53 PM 68.0°F20.0°C 28.7°F-1.8°C 23% 5.2 mph NE8.4 kmh NE 17.4 mph28.0 kmh 30.15 in1021.0 mb 0.00 in0.0 mm 0.00 in0.0 mm 0.00 in0.0 mm
04:58 PM 68.0°F20.0°C 27.6°F-2.4°C 22% 7.9 mph N12.7 kmh N 17.0 mph27.4 kmh 30.15 in1021.0 mb 0.00 in0.0 mm 0.00 in0.0 mm 0.00 in0.0 mm
05:03 PM 67.1°F19.5°C 26.9°F-2.8°C 22% 8.9 mph NNE14.3 kmh NNE 14.4 mph23.2 kmh 30.15 in1021.0 mb 0.00 in0.0 mm 0.00 in0.0 mm 0.00 in0.0 mm
05:08 PM 66.5°F19.2°C 12.1°F-11.1°C 12% 12.8 mph NNE20.6 kmh NNE 19.2 mph30.9 kmh 30.15 in1021.0 mb 0.00 in0.0 mm 0.00 in0.0 mm 0.00 in0.0 mm
05:13 PM 67.1°F19.5°C 28.9°F-1.7°C 24% 4.7 mph N7.6 kmh N 19.2 mph30.9 kmh 30.15 in1021.0 mb 0.00 in0.0 mm 0.00 in0.0 mm 0.00 in0.0 mm
05:18 PM 67.4°F19.7°C 29.2°F-1.6°C 24% 2.4 mph SSE3.9 kmh SSE 8.0 mph12.9 kmh 30.15 in1021.0 mb 0.00 in0.0 mm 0.00 in0.0 mm 0.00 in0.0 mm
05:23 PM 67.3°F19.6°C 29.1°F-1.6°C 24% 3.8 mph WSW6.1 kmh WSW 8.0 mph12.9 kmh 30.15 in1021.0 mb 0.00 in0.0 mm 0.00 in0.0 mm 0.00 in0.0 mm
05:28 PM 67.3°F19.6°C 30.1°F-1.1°C 25% 2.9 mph WSW4.7 kmh WSW 5.8 mph9.3 kmh 30.15 in1021.0 mb 0.00 in0.0 mm 0.00 in0.0 mm 0.00 in0.0 mm
05:33 PM 66.9°F19.4°C 28.8°F-1.8°C 24% 5.4 mph N8.7 kmh N 15.6 mph25.1 kmh 30.15 in1021.0 mb 0.00 in0.0 mm 0.00 in0.0 mm 0.00 in0.0 mm
05:38 PM 66.7°F19.3°C 28.6°F-1.9°C 24% 5.7 mph W9.2 kmh W 15.6 mph25.1 kmh 30.15 in1021.0 mb 0.00 in0.0 mm 0.00 in0.0 mm 0.00 in0.0 mm
05:43 PM 66.5°F19.2°C 28.4°F-2.0°C 24% 6.8 mph N10.9 kmh N 17.8 mph28.6 kmh 30.15 in1021.0 mb 0.00 in0.0 mm 0.00 in0.0 mm 0.00 in0.0 mm
05:48 PM 66.7°F19.3°C 28.6°F-1.9°C 24% 4.4 mph NE7.1 kmh NE 17.8 mph28.6 kmh 30.15 in1021.0 mb 0.00 in0.0 mm 0.00 in0.0 mm 0.00 in0.0 mm
05:53 PM 66.7°F19.3°C 28.6°F-1.9°C 24% 6.8 mph NE10.9 kmh NE 10.8 mph17.4 kmh 30.15 in1021.0 mb 0.00 in0.0 mm 0.00 in0.0 mm 0.00 in0.0 mm
05:58 PM 66.0°F18.9°C 28.0°F-2.2°C 24% 8.5 mph N13.7 kmh N 17.4 mph28.0 kmh 30.15 in1021.0 mb 0.00 in0.0 mm 0.00 in0.0 mm 0.00 in0.0 mm
06:03 PM 65.8°F18.8°C 28.8°F-1.8°C 25% 4.8 mph N7.7 kmh N 17.4 mph28.0 kmh 30.15 in1021.0 mb 0.00 in0.0 mm 0.00 in0.0 mm 0.00 in0.0 mm
06:08 PM 65.8°F18.8°C 28.8°F-1.8°C 25% 4.2 mph N6.8 kmh N 14.8 mph23.8 kmh 30.15 in1021.0 mb 0.00 in0.0 mm 0.00 in0.0 mm 0.00 in0.0 mm
06:14 PM 65.8°F18.8°C 28.8°F-1.8°C 25% 4.2 mph NW6.8 kmh NW 8.6 mph13.8 kmh 30.15 in1021.0 mb 0.00 in0.0 mm 0.00 in0.0 mm 0.00 in0.0 mm
06:19 PM 65.6°F18.7°C 28.7°F-1.8°C 25% 4.3 mph NNW6.9 kmh NNW 8.6 mph13.8 kmh 30.15 in1021.0 mb 0.00 in0.0 mm 0.00 in0.0 mm 0.00 in0.0 mm
06:25 PM 65.6°F18.7°C 27.7°F-2.4°C 24% 4.8 mph N7.7 kmh N 7.6 mph12.2 kmh 30.15 in1021.0 mb 0.00 in0.0 mm 0.00 in0.0 mm 0.00 in0.0 mm
06:30 PM 65.5°F18.6°C 27.6°F-2.4°C 24% 5.0 mph NE8.0 kmh NE 8.6 mph13.8 kmh 30.15 in1021.0 mb 0.00 in0.0 mm 0.00 in0.0 mm 0.00 in0.0 mm
06:35 PM 65.5°F18.6°C 27.6°F-2.4°C 24% 6.2 mph N10.0 kmh N 11.6 mph18.7 kmh 30.15 in1021.0 mb 0.00 in0.0 mm 0.00 in0.0 mm 0.00 in0.0 mm
06:40 PM 65.1°F18.4°C 27.2°F-2.7°C 24% 2.9 mph NNE4.7 kmh NNE 11.6 mph18.7 kmh 30.15 in1021.0 mb 0.00 in0.0 mm 0.00 in0.0 mm 0.00 in0.0 mm
06:45 PM 64.7°F18.2°C 27.9°F-2.3°C 25% 6.1 mph NNE9.8 kmh NNE 9.8 mph15.8 kmh 30.15 in1021.0 mb 0.00 in0.0 mm 0.00 in0.0 mm 0.00 in0.0 mm
06:50 PM 64.4°F18.0°C 27.6°F-2.4°C 25% 2.4 mph 3.9 kmh 9.8 mph15.8 kmh 30.15 in1021.0 mb 0.00 in0.0 mm 0.00 in0.0 mm 0.00 in0.0 mm
06:56 PM 64.2°F17.9°C 27.5°F-2.5°C 25% 3.9 mph NNE6.3 kmh NNE 7.2 mph11.6 kmh 30.15 in1021.0 mb 0.00 in0.0 mm 0.00 in0.0 mm 0.00 in0.0 mm
07:00 PM 64.0°F17.8°C 27.3°F-2.6°C 25% 2.9 mph NNE4.7 kmh NNE 8.0 mph12.9 kmh 30.15 in1021.0 mb 0.00 in0.0 mm 0.00 in0.0 mm 0.00 in0.0 mm
07:05 PM 63.7°F17.6°C 28.0°F-2.2°C 26% 3.1 mph NNE5.0 kmh NNE 8.0 mph12.9 kmh 30.15 in1021.0 mb 0.00 in0.0 mm 0.00 in0.0 mm 0.00 in0.0 mm
07:11 PM 63.3°F17.4°C 27.6°F-2.4°C 26% 2.1 mph NNE3.4 kmh NNE 6.8 mph10.9 kmh 30.15 in1021.0 mb 0.00 in0.0 mm 0.00 in0.0 mm 0.00 in0.0 mm
07:16 PM 63.1°F17.3°C 27.5°F-2.5°C 26% 3.5 mph NNE5.6 kmh NNE 5.4 mph8.7 kmh 30.15 in1021.0 mb 0.00 in0.0 mm 0.00 in0.0 mm 0.00 in0.0 mm
07:21 PM 62.8°F17.1°C 27.2°F-2.7°C 26% 3.1 mph NE5.0 kmh NE 5.8 mph9.3 kmh 30.15 in1021.0 mb 0.00 in0.0 mm 0.00 in0.0 mm 0.00 in0.0 mm
07:26 PM 62.6°F17.0°C 27.0°F-2.8°C 26% 3.8 mph NNE6.1 kmh NNE 5.8 mph9.3 kmh 30.15 in1021.0 mb 0.00 in0.0 mm 0.00 in0.0 mm 0.00 in0.0 mm
07:31 PM 62.4°F16.9°C 26.9°F-2.8°C 26% 3.6 mph NNE5.8 kmh NNE 6.2 mph10.0 kmh 30.15 in1021.0 mb 0.00 in0.0 mm 0.00 in0.0 mm 0.00 in0.0 mm
07:36 PM 62.2°F16.8°C 27.6°F-2.4°C 27% 3.7 mph ENE6.0 kmh ENE 6.2 mph10.0 kmh 30.15 in1021.0 mb 0.00 in0.0 mm 0.00 in0.0 mm 0.00 in0.0 mm
07:41 PM 62.0°F16.7°C 27.4°F-2.6°C 27% 4.5 mph N7.2 kmh N 5.8 mph9.3 kmh 30.15 in1021.0 mb 0.00 in0.0 mm 0.00 in0.0 mm 0.00 in0.0 mm
07:46 PM 61.5°F16.4°C 27.0°F-2.8°C 27% Calm Calm 5.8 mph9.3 kmh 30.15 in1021.0 mb 0.00 in0.0 mm 0.00 in0.0 mm 0.00 in0.0 mm
07:51 PM 61.0°F16.1°C 27.4°F-2.6°C 28% Calm Calm 5.8 mph9.3 kmh 30.18 in1022.0 mb 0.00 in0.0 mm 0.00 in0.0 mm 0.00 in0.0 mm
07:56 PM 60.1°F15.6°C 29.1°F-1.6°C 31% Calm Calm -- 30.18 in1022.0 mb 0.00 in0.0 mm 0.00 in0.0 mm 0.00 in0.0 mm
08:01 PM 59.3°F15.2°C 30.6°F-0.8°C 34% Calm Calm -- 30.18 in1022.0 mb 0.00 in0.0 mm 0.00 in0.0 mm 0.00 in0.0 mm
08:07 PM 58.4°F14.7°C 32.6°F0.3°C 38% Calm Calm -- 30.12 in1020.0 mb 0.00 in0.0 mm 0.00 in0.0 mm 0.00 in0.0 mm
08:12 PM 57.6°F14.2°C 32.5°F0.3°C 39% Calm Calm -- 30.12 in1020.0 mb 0.00 in0.0 mm 0.00 in0.0 mm 0.00 in0.0 mm
08:18 PM 56.7°F13.7°C 31.7°F-0.2°C 39% Calm Calm -- 30.12 in1020.0 mb 0.00 in0.0 mm 0.00 in0.0 mm 0.00 in0.0 mm
08:23 PM 56.2°F13.4°C 31.3°F-0.4°C 39% Calm Calm -- 30.15 in1021.0 mb 0.00 in0.0 mm 0.00 in0.0 mm 0.00 in0.0 mm
08:28 PM 55.5°F13.1°C 31.3°F-0.4°C 40% Calm Calm -- 30.15 in1021.0 mb 0.00 in0.0 mm 0.00 in0.0 mm 0.00 in0.0 mm
08:33 PM 54.8°F12.7°C 30.7°F-0.7°C 40% Calm Calm -- 30.15 in1021.0 mb 0.00 in0.0 mm 0.00 in0.0 mm 0.00 in0.0 mm
08:38 PM 54.2°F12.3°C 30.1°F-1.1°C 40% Calm Calm -- 30.15 in1021.0 mb 0.00 in0.0 mm 0.00 in0.0 mm 0.00 in0.0 mm
08:43 PM 53.7°F12.1°C 29.7°F-1.3°C 40% Calm Calm -- 30.15 in1021.0 mb 0.00 in0.0 mm 0.00 in0.0 mm 0.00 in0.0 mm
08:48 PM 53.1°F11.7°C 32.1°F0.1°C 45% Calm Calm -- 30.15 in1021.0 mb 0.00 in0.0 mm 0.00 in0.0 mm 0.00 in0.0 mm
08:53 PM 52.6°F11.4°C 31.1°F-0.5°C 44% Calm Calm -- 30.15 in1021.0 mb 0.00 in0.0 mm 0.00 in0.0 mm 0.00 in0.0 mm
08:58 PM 52.2°F11.2°C 32.4°F0.2°C 47% Calm Calm -- 30.15 in1021.0 mb 0.00 in0.0 mm 0.00 in0.0 mm 0.00 in0.0 mm
09:03 PM 51.9°F11.1°C 32.7°F0.4°C 48% Calm Calm -- 30.15 in1021.0 mb 0.00 in0.0 mm 0.00 in0.0 mm 0.00 in0.0 mm
09:08 PM 51.5°F10.8°C 33.4°F0.8°C 50% Calm Calm -- 30.15 in1021.0 mb 0.00 in0.0 mm 0.00 in0.0 mm 0.00 in0.0 mm
09:13 PM 51.0°F10.6°C 32.9°F0.5°C 50% Calm Calm -- 30.15 in1021.0 mb 0.00 in0.0 mm 0.00 in0.0 mm 0.00 in0.0 mm
09:18 PM 50.4°F10.2°C 32.3°F0.2°C 50% Calm Calm -- 30.15 in1021.0 mb 0.00 in0.0 mm 0.00 in0.0 mm 0.00 in0.0 mm
09:23 PM 50.1°F10.1°C 31.5°F-0.3°C 49% Calm Calm -- 30.15 in1021.0 mb 0.00 in0.0 mm 0.00 in0.0 mm 0.00 in0.0 mm
09:29 PM 49.7°F9.8°C 31.7°F-0.2°C 50% Calm Calm -- 30.15 in1021.0 mb 0.00 in0.0 mm 0.00 in0.0 mm 0.00 in0.0 mm
09:34 PM 49.5°F9.7°C 31.0°F-0.6°C 49% Calm Calm -- 30.18 in1022.0 mb 0.00 in0.0 mm 0.00 in0.0 mm 0.00 in0.0 mm
09:39 PM 49.4°F9.7°C 34.8°F1.6°C 57% 3.8 mph 6.1 kmh 4.0 mph6.4 kmh 30.18 in1022.0 mb 0.00 in0.0 mm 0.00 in0.0 mm 0.00 in0.0 mm
09:44 PM 48.8°F9.3°C 34.7°F1.5°C 58% 1.8 mph 2.9 kmh 4.0 mph6.4 kmh 30.18 in1022.0 mb 0.00 in0.0 mm 0.00 in0.0 mm 0.00 in0.0 mm
09:49 PM 48.5°F9.2°C 33.9°F1.1°C 57% Calm Calm 4.0 mph6.4 kmh 30.21 in1023.0 mb 0.00 in0.0 mm 0.00 in0.0 mm 0.00 in0.0 mm
09:54 PM 47.9°F8.8°C 33.8°F1.0°C 58% Calm Calm -- 30.21 in1023.0 mb 0.00 in0.0 mm 0.00 in0.0 mm 0.00 in0.0 mm
09:59 PM 47.6°F8.7°C 33.1°F0.6°C 57% Calm Calm -- 30.21 in1023.0 mb 0.00 in0.0 mm 0.00 in0.0 mm 0.00 in0.0 mm
10:04 PM 47.2°F8.4°C 33.2°F0.7°C 58% 2.1 mph 3.4 kmh 4.0 mph6.4 kmh 30.21 in1023.0 mb 0.00 in0.0 mm 0.00 in0.0 mm 0.00 in0.0 mm
10:10 PM 47.2°F8.4°C 35.7°F2.1°C 64% 1.8 mph 2.9 kmh 4.0 mph6.4 kmh 30.21 in1023.0 mb 0.00 in0.0 mm 0.00 in0.0 mm 0.00 in0.0 mm
10:15 PM 47.2°F8.4°C 36.4°F2.4°C 66% 3.5 mph NW5.6 kmh NW 4.0 mph6.4 kmh 30.21 in1023.0 mb 0.00 in0.0 mm 0.00 in0.0 mm 0.00 in0.0 mm
10:21 PM 47.0°F8.3°C 34.3°F1.3°C 61% Calm Calm 4.0 mph6.4 kmh 30.21 in1023.0 mb 0.00 in0.0 mm 0.00 in0.0 mm 0.00 in0.0 mm
10:26 PM 46.8°F8.2°C 34.1°F1.2°C 61% Calm Calm 1.8 mph2.9 kmh 30.21 in1023.0 mb 0.00 in0.0 mm 0.00 in0.0 mm 0.00 in0.0 mm
10:31 PM 46.7°F8.2°C 34.8°F1.6°C 63% Calm Calm -- 30.21 in1023.0 mb 0.00 in0.0 mm 0.00 in0.0 mm 0.00 in0.0 mm
10:36 PM 46.5°F8.1°C 35.0°F1.7°C 64% Calm Calm -- 30.21 in1023.0 mb 0.00 in0.0 mm 0.00 in0.0 mm 0.00 in0.0 mm
10:41 PM 46.3°F7.9°C 36.3°F2.4°C 68% Calm Calm -- 30.21 in1023.0 mb 0.00 in0.0 mm 0.00 in0.0 mm 0.00 in0.0 mm
10:46 PM 46.1°F7.8°C 36.5°F2.5°C 69% Calm Calm -- 30.21 in1023.0 mb 0.00 in0.0 mm 0.00 in0.0 mm 0.00 in0.0 mm
10:51 PM 45.9°F7.7°C 37.0°F2.8°C 71% 2.2 mph 3.5 kmh 2.2 mph3.5 kmh 30.21 in1023.0 mb 0.00 in0.0 mm 0.00 in0.0 mm 0.00 in0.0 mm
10:56 PM 45.8°F7.7°C 37.3°F2.9°C 72% Calm Calm 2.2 mph3.5 kmh 30.21 in1023.0 mb 0.00 in0.0 mm 0.00 in0.0 mm 0.00 in0.0 mm
11:01 PM 45.8°F7.7°C 36.6°F2.6°C 70% Calm Calm -- 30.21 in1023.0 mb 0.00 in0.0 mm 0.00 in0.0 mm 0.00 in0.0 mm
11:06 PM 45.6°F7.6°C 36.4°F2.4°C 70% Calm Calm -- 30.21 in1023.0 mb 0.00 in0.0 mm 0.00 in0.0 mm 0.00 in0.0 mm
11:11 PM 45.4°F7.4°C 35.8°F2.1°C 69% Calm Calm -- 30.21 in1023.0 mb 0.00 in0.0 mm 0.00 in0.0 mm 0.00 in0.0 mm
11:16 PM 45.4°F7.4°C 36.9°F2.7°C 72% 2.7 mph 4.3 kmh 3.2 mph5.1 kmh 30.21 in1023.0 mb 0.00 in0.0 mm 0.00 in0.0 mm 0.00 in0.0 mm
11:22 PM 45.2°F7.3°C 38.4°F3.6°C 77% 2.2 mph 3.5 kmh 3.2 mph5.1 kmh 30.21 in1023.0 mb 0.00 in0.0 mm 0.00 in0.0 mm 0.00 in0.0 mm
11:27 PM 45.0°F7.2°C 36.9°F2.7°C 73% Calm Calm 3.2 mph5.1 kmh 30.21 in1023.0 mb 0.00 in0.0 mm 0.00 in0.0 mm 0.00 in0.0 mm
11:32 PM 45.0°F7.2°C 36.2°F2.3°C 71% 2.9 mph 4.7 kmh 4.0 mph6.4 kmh 30.21 in1023.0 mb 0.00 in0.0 mm 0.00 in0.0 mm 0.00 in0.0 mm
11:37 PM 45.0°F7.2°C 36.2°F2.3°C 71% Calm Calm 4.0 mph6.4 kmh 30.21 in1023.0 mb 0.00 in0.0 mm 0.00 in0.0 mm 0.00 in0.0 mm
11:42 PM 44.9°F7.2°C 37.4°F3.0°C 75% 2.9 mph SSE4.7 kmh SSE 5.0 mph8.0 kmh 30.21 in1023.0 mb 0.00 in0.0 mm 0.00 in0.0 mm 0.00 in0.0 mm
11:47 PM 44.5°F6.9°C 37.4°F3.0°C 76% Calm Calm 5.0 mph8.0 kmh 30.21 in1023.0 mb 0.00 in0.0 mm 0.00 in0.0 mm 0.00 in0.0 mm
11:53 PM 44.1°F6.7°C 37.0°F2.8°C 76% 2.6 mph SSE4.2 kmh SSE 5.0 mph8.0 kmh 30.21 in1023.0 mb 0.00 in0.0 mm 0.00 in0.0 mm 0.00 in0.0 mm
11:58 PM 44.1°F6.7°C 36.7°F2.6°C 75% 3.6 mph 5.8 kmh 5.4 mph8.7 kmh 30.21 in1023.0 mb 0.00 in0.0 mm 0.00 in0.0 mm 0.00 in0.0 mm